Briefing drone pour Annecy (LFLP)

Rechercher une autre localisation

Conditions de vol :


Nous sommes le : Vendredi 06 août 2021
Il est 00:50 UTC (02:50 LT)

Lever de soleil : 03:58 UTC (05:58 LT)
Coucher de soleil : 19:24 UTC (21:24 LT)

Météo

L'essentiel des conditions de vol

VIGILANCE MÉTÉO FRANCE - Haute-Savoie (74)
Pas de vigilances particulieres
CARTE TEMSI
CARTES DES FRONTS
METAR de LFLP
LFLP 060030Z AUTO VRB02KT 9999 OVC052 17/14 Q1012

Date d'émission: 06/08/2021
Heure d'émission: 00:30 UTC
Vent: Variable 2 KT (4 km/h)
Visibilité horizontale: > 10 km
Plafond :
- Couvert à 5200ft (1585m)
Température: 17 °C
Point de rosée: 14 °C
Humidité: 83%
Pression (QNH): 1012 hPa
TAF de LFLP
AMD LFLP 051907Z 0519/0615 CNL

Conditions prévues :

Heure d'émission : Bulletin éffectué le 05 à 19:00 UTC
Prévision : Valide du 05 a 19:00 UTC au 06 a 15:00 UTC
Nuages : à 0ft (0 m)
WEBCAM POUR ANNECY

Réglementation

Voler en sécurité

CARTES AERONAUTIQUE 1/500.000
CARTES VAC (LFLP)
SUP AIP




Chargement des AIP...
NOTAM (ANNECY + Terrain à proximité / FIR )




Chargement des NOTAMS...
CONTACT PREFECTURE 74


Avertissement : Les données mises à disposition sont indicatives. Oxygène Drone ne pourra être tenu responsable de dégâts causés aux biens et aux personnes.